Time;durP1;ratioP1;P1;durP2;ratioP2;P2;SDS_P1;SDS_P2;PMS_P1;PMS_P2;Temp;Humidity;BMP_temperature;BMP_pressure;BME280_temperature;BME280_humidity;BME280_pressure;Samples;Min_cycle;Max_cycle;Signal;HPM_P1;HPM_P2
2021/10/21 00:00:42;;;;;;;;;;;;;;;16.25;76.00;98511.47;5040901;28;810;-60
2021/10/21 00:03:08;;;;;;;;;;;;;;;16.25;76.33;98499.88;5041106;28;895;-60
2021/10/21 00:05:33;;;;;;;;;;;;;;;16.24;75.78;98488.31;5041004;28;1005;-59
2021/10/21 00:07:58;;;;;;;;;;;;;;;16.25;76.02;98481.91;5040981;28;1009;-60
2021/10/21 00:10:23;;;;;;;;;;;;;;;16.26;76.24;98475.50;5040503;28;1871;-59
2021/10/21 00:12:48;;;;;;;;;;;;;;;16.27;76.21;98450.28;5040817;28;1635;-60
2021/10/21 00:15:13;;;;;;;;;;;;;;;16.25;76.10;98436.22;5040844;28;1894;-59
2021/10/21 00:17:38;;;;;;;;;;;;;;;16.25;76.08;98398.59;5040671;28;843;-59
2021/10/21 00:20:05;;;;;;;;;;;;;;;16.25;76.14;98377.09;5041170;28;894;-60
2021/10/21 00:22:31;;;;;;;;;;;;;;;16.24;76.22;98356.63;5040556;28;892;-61
2021/10/21 00:24:56;;;;;;;;;;;;;;;16.23;76.11;98328.09;5040352;28;1811;-60
2021/10/21 00:27:22;;;;;;;;;;;;;;;16.23;75.90;98317.34;5040537;28;1362;-59
2021/10/21 00:29:47;;;;;;;;;;;;;;;16.24;76.14;98302.88;5037279;28;843;-59
2021/10/21 00:32:12;;;;;;;;;;;;;;;16.23;76.23;98290.47;5037801;28;1738;-58
2021/10/21 00:34:37;;;;;;;;;;;;;;;16.23;76.21;98287.78;5037433;28;1949;-58
2021/10/21 00:37:02;;;;;;;;;;;;;;;16.23;76.10;98274.34;5037374;28;1493;-59
2021/10/21 00:39:27;;;;;;;;;;;;;;;16.22;75.54;98267.31;5037731;28;911;-59
2021/10/21 00:41:52;;;;;;;;;;;;;;;16.22;75.95;98250.34;5037292;28;2044;-59
2021/10/21 00:44:17;;;;;;;;;;;;;;;16.21;75.97;98246.84;5037228;28;1995;-59
2021/10/21 00:46:42;;;;;;;;;;;;;;;16.22;75.87;98235.06;5037076;28;835;-60
2021/10/21 00:49:07;;;;;;;;;;;;;;;16.22;75.99;98221.63;5037270;28;854;-60
2021/10/21 00:51:33;;;;;;;;;;;;;;;16.22;76.21;98210.03;5037152;28;1722;-60
2021/10/21 00:53:58;;;;;;;;;;;;;;;16.21;76.00;98198.47;5037218;28;986;-59
2021/10/21 00:56:23;;;;;;;;;;;;;;;16.21;76.08;98198.47;5036819;28;1975;-59
2021/10/21 00:58:51;;;;;;;;;;;;;;;16.20;76.04;98178.00;5037105;28;1029;-59
2021/10/21 01:01:16;;;;;;;;;;;;;;;16.20;75.91;98169.94;5037069;28;894;-60
2021/10/21 01:03:41;;;;;;;;;;;;;;;16.20;76.33;98161.03;5037154;28;866;-60
2021/10/21 01:06:06;;;;;;;;;;;;;;;16.20;76.12;98215.63;5036858;28;1002;-60
2021/10/21 01:08:31;;;;;;;;;;;;;;;16.24;76.27;98320.84;5036732;28;953;-60
2021/10/21 01:10:56;;;;;;;;;;;;;;;16.23;76.07;98309.28;5036744;28;1703;-61
2021/10/21 01:13:21;;;;;;;;;;;;;;;16.23;75.97;98306.59;5037307;28;843;-60
2021/10/21 01:15:46;;;;;;;;;;;;;;;16.21;75.79;98318.56;5036593;28;1959;-60
2021/10/21 01:18:11;;;;;;;;;;;;;;;16.19;75.82;98316.06;5036885;28;1665;-61
2021/10/21 01:20:36;;;;;;;;;;;;;;;16.19;75.86;98318.75;5036898;28;788;-60
2021/10/21 01:23:01;;;;;;;;;;;;;;;16.18;75.69;98309.03;5036885;28;849;-60
2021/10/21 01:25:27;;;;;;;;;;;;;;;16.19;75.90;98305.31;5036494;28;1269;-61
2021/10/21 01:27:52;;;;;;;;;;;;;;;16.16;75.80;98289.59;5036539;28;946;-60
2021/10/21 01:30:17;;;;;;;;;;;;;;;16.17;75.79;98296.63;5036354;28;1865;-61
2021/10/21 01:32:44;;;;;;;;;;;;;;;16.18;76.00;98297.44;5036743;28;1073;-60
2021/10/21 01:35:09;;;;;;;;;;;;;;;16.17;75.72;98304.69;5036353;28;1905;-60
2021/10/21 01:37:34;;;;;;;;;;;;;;;16.19;75.69;98293.75;5036365;28;1575;-60
2021/10/21 01:40:00;;;;;;;;;;;;;;;16.19;75.80;98305.31;5035380;28;1453;-60
2021/10/21 01:42:25;;;;;;;;;;;;;;;16.19;75.72;98302.63;5035812;28;873;-59
2021/10/21 01:44:50;;;;;;;;;;;;;;;16.19;75.83;98291.06;5035990;28;1773;-59
2021/10/21 01:47:15;;;;;;;;;;;;;;;16.18;75.94;98289.38;5036195;28;1873;-59
2021/10/21 01:49:40;;;;;;;;;;;;;;;16.16;75.98;98281.53;5036187;28;2014;-59
2021/10/21 01:52:06;;;;;;;;;;;;;;;16.16;75.85;98286.91;5036392;28;1025;-59
2021/10/21 01:54:31;;;;;;;;;;;;;;;16.14;76.00;98275.50;5035720;28;1981;-60
2021/10/21 01:56:56;;;;;;;;;;;;;;;16.12;75.29;98280.25;5035987;28;861;-60
2021/10/21 01:59:21;;;;;;;;;;;;;;;16.11;75.50;98264.34;5035630;28;1013;-60
2021/10/21 02:01:46;;;;;;;;;;;;;;;16.12;75.21;98277.56;5035831;28;1225;-61
2021/10/21 02:04:11;;;;;;;;;;;;;;;16.09;74.96;98278.00;5036067;28;873;-61
2021/10/21 02:06:36;;;;;;;;;;;;;;;16.08;75.46;98273.63;5035675;28;918;-62
2021/10/21 02:09:01;;;;;;;;;;;;;;;16.08;74.96;98267.44;5035764;28;1878;-61
2021/10/21 02:11:26;;;;;;;;;;;;;;;16.08;75.23;98275.50;5035575;28;1387;-61
2021/10/21 02:13:51;;;;;;;;;;;;;;;16.07;75.28;98260.41;5035400;28;1214;-60
2021/10/21 02:16:17;;;;;;;;;;;;;;;16.06;74.51;98256.88;5035420;28;1886;-58
2021/10/21 02:18:42;;;;;;;;;;;;;;;16.05;74.82;98255.22;5035778;28;829;-59
2021/10/21 02:21:07;;;;;;;;;;;;;;;16.05;74.91;98255.22;5035658;28;847;-60
2021/10/21 02:23:32;;;;;;;;;;;;;;;16.05;74.91;98257.91;5035158;28;1068;-59
2021/10/21 02:25:57;;;;;;;;;;;;;;;16.05;74.90;98259.78;5035262;28;1362;-59
2021/10/21 02:28:22;;;;;;;;;;;;;;;16.04;74.76;98261.63;5035100;28;1908;-59
2021/10/21 02:30:47;;;;;;;;;;;;;;;16.03;74.50;98256.44;5035206;28;1728;-59
2021/10/21 02:33:13;;;;;;;;;;;;;;;16.02;74.73;98277.09;5035477;28;1181;-60
2021/10/21 02:35:38;;;;;;;;;;;;;;;16.00;74.43;98263.03;5035451;28;1875;-60
2021/10/21 02:38:03;;;;;;;;;;;;;;;15.98;74.11;98259.72;5035001;28;1652;-60
2021/10/21 02:40:29;;;;;;;;;;;;;;;15.99;74.23;98261.38;5035311;28;1036;-59
2021/10/21 02:42:54;;;;;;;;;;;;;;;15.98;74.54;98257.84;5035108;28;844;-59
2021/10/21 02:45:19;;;;;;;;;;;;;;;15.98;74.21;98270.47;5035236;28;1004;-60
2021/10/21 02:47:44;;;;;;;;;;;;;;;15.96;74.33;98259.91;5035082;28;799;-59
2021/10/21 02:50:09;;;;;;;;;;;;;;;15.97;74.13;98271.47;5035007;28;1861;-60
2021/10/21 02:52:34;;;;;;;;;;;;;;;15.95;74.12;98255.56;5034616;28;1001;-60
2021/10/21 02:54:59;;;;;;;;;;;;;;;15.95;74.22;98250.19;5035105;28;1975;-60
2021/10/21 02:57:24;;;;;;;;;;;;;;;15.97;73.92;98250.00;5035109;28;1065;-60
2021/10/21 02:59:49;;;;;;;;;;;;;;;15.94;73.93;98248.53;5035000;28;855;-59
2021/10/21 03:02:15;;;;;;;;;;;;;;;15.95;74.19;98249.34;5035054;28;1033;-59
2021/10/21 03:04:42;;;;;;;;;;;;;;;15.96;74.35;98253.72;5034959;28;1088;-60
2021/10/21 03:07:07;;;;;;;;;;;;;;;15.96;74.43;98257.22;5035066;28;1070;-62
2021/10/21 03:09:32;;;;;;;;;;;;;;;15.95;74.63;98263.63;5034691;28;1754;-59
2021/10/21 03:11:57;;;;;;;;;;;;;;;15.94;73.98;98250.41;5034843;28;1041;-59
2021/10/21 03:14:22;;;;;;;;;;;;;;;15.94;74.35;98251.22;5034569;28;1894;-59
2021/10/21 03:16:47;;;;;;;;;;;;;;;15.95;74.14;98260.09;5034863;28;958;-59
2021/10/21 03:19:12;;;;;;;;;;;;;;;15.93;74.59;98249.59;5034888;28;1462;-59
2021/10/21 03:21:38;;;;;;;;;;;;;;;15.93;74.28;98246.91;5034622;28;1014;-59
2021/10/21 03:24:03;;;;;;;;;;;;;;;15.93;74.49;98251.44;5034544;28;1954;-59
2021/10/21 03:26:28;;;;;;;;;;;;;;;15.92;74.38;98249.78;5034234;28;1350;-59
2021/10/21 03:28:53;;;;;;;;;;;;;;;15.92;74.60;98257.84;5034735;28;1915;-59
2021/10/21 03:31:18;;;;;;;;;;;;;;;15.93;74.51;98259.50;5034828;28;1064;-60
2021/10/21 03:33:43;;;;;;;;;;;;;;;15.92;74.40;98252.47;5034665;28;894;-59
2021/10/21 03:36:08;;;;;;;;;;;;;;;15.91;74.37;98256.19;5034818;28;2016;-59
2021/10/21 03:38:33;;;;;;;;;;;;;;;15.90;74.70;98258.03;5034425;28;1061;-59
2021/10/21 03:40:58;;;;;;;;;;;;;;;15.90;74.41;98257.19;5034347;28;1817;-60
2021/10/21 03:43:23;;;;;;;;;;;;;;;15.91;74.35;98258.84;5034789;28;811;-59
2021/10/21 03:45:48;;;;;;;;;;;;;;;15.89;74.64;98252.84;5034301;28;1626;-60
2021/10/21 03:48:13;;;;;;;;;;;;;;;15.90;74.58;98251.81;5034693;28;1943;-60
2021/10/21 03:50:38;;;;;;;;;;;;;;;15.90;74.53;98267.94;5034755;28;1013;-61
2021/10/21 03:53:09;;;;;;;;;;;;;;;15.90;74.53;98257.19;5034435;28;1084;-61
2021/10/21 03:55:34;;;;;;;;;;;;;;;15.89;74.63;98268.97;5034526;28;1911;-59
2021/10/21 03:57:59;;;;;;;;;;;;;;;15.88;74.85;98264.63;5034687;28;1029;-60
2021/10/21 04:00:24;;;;;;;;;;;;;;;15.88;74.80;98265.44;5034157;28;946;-59
2021/10/21 04:02:49;;;;;;;;;;;;;;;15.89;74.65;98260.91;5034485;28;882;-59
2021/10/21 04:05:14;;;;;;;;;;;;;;;15.89;74.55;98268.97;5037892;28;844;-59
2021/10/21 04:07:39;;;;;;;;;;;;;;;15.88;74.82;98272.69;5037679;28;1483;-59
2021/10/21 04:10:04;;;;;;;;;;;;;;;15.88;74.85;98276.19;5037755;28;1839;-59
2021/10/21 04:12:31;;;;;;;;;;;;;;;15.87;74.78;98279.91;5037720;28;833;-60
2021/10/21 04:14:57;;;;;;;;;;;;;;;15.87;74.84;98292.50;5037802;28;1949;-60
2021/10/21 04:17:22;;;;;;;;;;;;;;;15.87;74.82;98292.50;5037801;28;810;-59
2021/10/21 04:19:47;;;;;;;;;;;;;;;15.87;75.04;98295.19;5037782;28;1016;-60
2021/10/21 04:22:12;;;;;;;;;;;;;;;15.87;74.68;98295.19;5037959;28;848;-61
2021/10/21 04:24:37;;;;;;;;;;;;;;;15.87;74.56;98304.06;5038010;28;1033;-60
2021/10/21 04:27:02;;;;;;;;;;;;;;;15.87;74.91;98303.25;5037431;28;1879;-60
2021/10/21 04:29:27;;;;;;;;;;;;;;;15.86;75.11;98310.47;5037616;28;922;-60
2021/10/21 04:31:52;;;;;;;;;;;;;;;15.86;75.14;98315.00;5037314;28;1666;-61
2021/10/21 04:34:17;;;;;;;;;;;;;;;15.87;74.95;98317.50;5037578;28;1961;-61
2021/10/21 04:36:42;;;;;;;;;;;;;;;15.86;75.08;98320.38;5037551;28;1230;-61
2021/10/21 04:39:07;;;;;;;;;;;;;;;15.85;74.59;98324.09;5037333;28;862;-61
2021/10/21 04:41:32;;;;;;;;;;;;;;;15.85;74.65;98337.53;5036308;28;2199;-61
2021/10/21 04:43:57;;;;;;;;;;;;;;;15.85;74.77;98337.53;5036710;28;1744;-61
2021/10/21 04:46:22;;;;;;;;;;;;;;;15.85;75.04;98342.88;5037633;28;1894;-60
2021/10/21 04:48:48;;;;;;;;;;;;;;;15.85;74.90;98350.94;5019545;28;1961;-59
2021/10/21 04:51:13;;;;;;;;;;;;;;;15.89;75.94;98365.66;5019805;28;911;-59
2021/10/21 04:53:38;;;;;;;;;;;;;;;15.98;77.21;98402.91;5037180;28;878;-59
2021/10/21 04:56:03;;;;;;;;;;;;;;;16.07;78.93;98475.31;5036974;28;1987;-61
2021/10/21 04:58:29;;;;;;;;;;;;;;;16.12;79.51;98495.19;5037073;28;813;-59
2021/10/21 05:00:54;;;;;;;;;;;;;;;16.10;79.27;98491.06;5036852;28;1907;-58
2021/10/21 05:03:19;;;;;;;;;;;;;;;16.10;78.96;98521.47;5036887;28;1765;-58
2021/10/21 05:05:44;;;;;;;;;;;;;;;16.11;79.45;98541.09;5037060;28;914;-58
2021/10/21 05:08:09;;;;;;;;;;;;;;;16.08;79.19;98553.06;5036353;28;1766;-60
2021/10/21 05:10:34;;;;;;;;;;;;;;;16.09;78.91;98578.06;5015467;28;1615;-60
2021/10/21 05:12:59;;;;;;;;;;;;;;;16.08;78.77;98601.41;5035155;28;2122;-60
2021/10/21 05:15:24;;;;;;;;;;;;;;;16.07;78.29;98623.94;5036314;28;1886;-60
2021/10/21 05:17:49;;;;;;;;;;;;;;;16.07;78.29;98639.22;5036402;28;1646;-60
2021/10/21 05:20:15;;;;;;;;;;;;;;;16.05;78.22;98657.38;5035826;28;1635;-60
2021/10/21 05:22:40;;;;;;;;;;;;;;;16.03;77.85;98679.06;5035846;28;1793;-60
2021/10/21 05:25:05;;;;;;;;;;;;;;;16.04;78.01;98694.16;5036133;28;2181;-60
2021/10/21 05:27:30;;;;;;;;;;;;;;;16.01;77.16;98705.28;5035870;28;1700;-60
2021/10/21 05:29:55;;;;;;;;;;;;;;;16.02;76.90;98717.69;5034388;28;2756;-60
2021/10/21 05:32:20;;;;;;;;;;;;;;;16.01;76.93;98742.06;5026821;28;2111;-60
2021/10/21 05:34:45;;;;;;;;;;;;;;;15.99;76.58;98761.03;5027604;28;1906;-61
2021/10/21 05:37:10;;;;;;;;;;;;;;;15.98;76.82;98764.75;5031543;28;1428;-60
2021/10/21 05:39:35;;;;;;;;;;;;;;;15.96;76.86;98778.34;5027789;28;1847;-60
2021/10/21 05:42:01;;;;;;;;;;;;;;;15.96;76.99;98799.00;5027269;28;1634;-60
2021/10/21 05:44:26;;;;;;;;;;;;;;;15.94;76.69;98801.88;5028246;28;1492;-60
2021/10/21 05:46:51;;;;;;;;;;;;;;;15.93;76.50;98816.34;5026927;28;1813;-60
2021/10/21 05:49:16;;;;;;;;;;;;;;;15.92;76.90;98825.44;5017931;28;1738;-61
2021/10/21 05:51:41;;;;;;;;;;;;;;;15.92;76.04;98851.47;5032290;28;1652;-60
2021/10/21 05:54:06;;;;;;;;;;;;;;;15.90;76.20;98848.13;5018739;28;1505;-60
2021/10/21 05:56:31;;;;;;;;;;;;;;;15.89;76.09;98859.88;5015559;28;1981;-60
2021/10/21 05:58:56;;;;;;;;;;;;;;;15.89;76.10;98878.69;5018901;28;1815;-60
2021/10/21 06:01:21;;;;;;;;;;;;;;;15.88;76.20;98887.75;5019622;28;1631;-60
2021/10/21 06:03:46;;;;;;;;;;;;;;;15.87;75.95;98907.56;5026156;28;1783;-61
2021/10/21 06:06:12;;;;;;;;;;;;;;;15.85;76.03;98906.91;5019314;28;1977;-59
2021/10/21 06:08:37;;;;;;;;;;;;;;;15.86;76.33;98927.38;5017895;28;1941;-59
2021/10/21 06:11:03;;;;;;;;;;;;;;;15.86;76.11;98938.13;5025697;28;1748;-60
2021/10/21 06:13:28;;;;;;;;;;;;;;;15.87;76.21;98950.56;5033280;28;1982;-60
2021/10/21 06:15:53;;;;;;;;;;;;;;;15.98;75.77;98963.53;5027243;28;2176;-62
2021/10/21 06:18:19;;;;;;;;;;;;;;;16.01;75.75;98970.41;5029564;28;1636;-58
2021/10/21 06:20:44;;;;;;;;;;;;;;;16.05;75.73;98975.25;5032520;28;1609;-58
2021/10/21 06:23:09;;;;;;;;;;;;;;;16.05;75.52;98983.31;5015703;28;1404;-59
2021/10/21 06:25:34;;;;;;;;;;;;;;;16.07;75.71;99000.09;5015574;28;1329;-58
2021/10/21 06:27:59;;;;;;;;;;;;;;;16.09;76.10;99018.72;5028084;28;1388;-59
2021/10/21 06:30:24;;;;;;;;;;;;;;;16.09;75.80;99029.47;5035299;28;842;-59
2021/10/21 06:32:50;;;;;;;;;;;;;;;16.09;75.60;99034.84;5035206;28;1430;-59
2021/10/21 06:35:15;;;;;;;;;;;;;;;16.08;75.58;99044.75;5027611;28;1902;-58
2021/10/21 06:37:41;;;;;;;;;;;;;;;16.08;75.96;99052.81;5028905;28;1571;-59
2021/10/21 06:40:06;;;;;;;;;;;;;;;16.08;75.89;99060.88;5020787;28;1407;-59
2021/10/21 06:42:31;;;;;;;;;;;;;;;16.08;75.91;99071.63;5031517;28;1530;-59
2021/10/21 06:44:56;;;;;;;;;;;;;;;16.11;75.75;99089.25;5020215;28;1374;-59
2021/10/21 06:47:21;;;;;;;;;;;;;;;16.10;75.46;99106.41;5026778;28;1378;-59
2021/10/21 06:49:47;;;;;;;;;;;;;;;16.09;75.62;99094.81;5026707;28;1409;-59
2021/10/21 06:52:12;;;;;;;;;;;;;;;16.11;75.83;99103.53;5020075;28;1374;-59
2021/10/21 06:54:37;;;;;;;;;;;;;;;16.11;75.50;99111.59;5032719;28;1909;-59
2021/10/21 06:57:02;;;;;;;;;;;;;;;16.11;75.59;99116.97;5033689;28;1910;-61
2021/10/21 06:59:27;;;;;;;;;;;;;;;16.13;75.77;99138.25;5034556;28;1635;-60
2021/10/21 07:01:52;;;;;;;;;;;;;;;16.12;75.32;99132.03;5034631;28;1718;-60
2021/10/21 07:04:17;;;;;;;;;;;;;;;16.11;75.53;99143.00;5023953;28;1660;-62
2021/10/21 07:06:42;;;;;;;;;;;;;;;16.12;76.02;99161.59;5033207;28;1750;-58
2021/10/21 07:09:07;;;;;;;;;;;;;;;16.13;75.10;99170.50;5034319;28;1624;-59
2021/10/21 07:11:32;;;;;;;;;;;;;;;16.13;75.83;99176.72;5033865;28;1077;-58
2021/10/21 07:13:58;;;;;;;;;;;;;;;16.14;75.47;99189.16;5019251;28;1085;-59
2021/10/21 07:16:23;;;;;;;;;;;;;;;16.15;75.46;99206.94;5031142;28;1894;-58
2021/10/21 07:18:48;;;;;;;;;;;;;;;16.14;74.67;99221.41;5034324;28;1609;-59
2021/10/21 07:21:17;;;;;;;;;;;;;;;16.14;74.97;99221.41;5034259;28;1873;-58
2021/10/21 07:23:42;;;;;;;;;;;;;;;16.13;74.75;99241.22;5034977;28;1206;-58
2021/10/21 07:26:07;;;;;;;;;;;;;;;16.13;75.13;99273.47;5028939;28;1248;-59
2021/10/21 07:28:32;;;;;;;;;;;;;;;16.13;74.99;99278.84;5023715;28;1163;-61
2021/10/21 07:30:58;;;;;;;;;;;;;;;16.12;74.71;99298.66;5034087;28;1707;-59
2021/10/21 07:33:23;;;;;;;;;;;;;;;16.11;74.63;99297.03;5034760;28;1188;-58
2021/10/21 07:35:48;;;;;;;;;;;;;;;16.18;74.50;99308.75;5023851;28;1956;-58
2021/10/21 07:38:14;;;;;;;;;;;;;;;16.20;74.81;99328.22;5033505;28;1903;-58
2021/10/21 07:40:39;;;;;;;;;;;;;;;16.18;74.19;99329.41;5038492;28;1025;-58
2021/10/21 07:43:04;;;;;;;;;;;;;;;16.17;74.04;99346.53;5038590;28;1005;-58
2021/10/21 07:45:30;;;;;;;;;;;;;;;16.12;73.89;99357.78;5038634;28;1907;-58
2021/10/21 07:47:55;;;;;;;;;;;;;;;16.08;74.34;99364.53;5038800;28;865;-57
2021/10/21 07:50:20;;;;;;;;;;;;;;;16.05;74.01;99383.69;5038590;28;800;-58
2021/10/21 07:52:46;;;;;;;;;;;;;;;16.02;74.40;99386.72;5038738;28;847;-58
2021/10/21 07:55:11;;;;;;;;;;;;;;;16.00;73.83;99396.78;5038490;28;1975;-58
2021/10/21 07:57:37;;;;;;;;;;;;;;;16.03;73.71;99403.69;5038277;28;2025;-58
2021/10/21 08:00:02;;;;;;;;;;;;;;;16.06;73.58;99406.88;5038201;28;819;-58
2021/10/21 08:02:27;;;;;;;;;;;;;;;16.08;73.33;99412.06;5036446;28;1958;-58
2021/10/21 08:04:52;;;;;;;;;;;;;;;16.07;73.19;99424.66;5037731;28;1674;-58
2021/10/21 08:07:18;;;;;;;;;;;;;;;16.07;72.78;99432.72;5038602;28;997;-58
2021/10/21 08:09:43;;;;;;;;;;;;;;;16.08;72.64;99445.16;5038099;28;879;-57
2021/10/21 08:12:08;;;;;;;;;;;;;;;16.10;72.59;99434.25;5037820;28;1819;-58
2021/10/21 08:14:33;;;;;;;;;;;;;;;16.14;72.13;99436.41;5037810;28;1893;-59
2021/10/21 08:16:58;;;;;;;;;;;;;;;16.23;72.07;99442.63;5037778;28;1862;-58
2021/10/21 08:19:23;;;;;;;;;;;;;;;16.36;72.35;99452.84;5038411;28;878;-59
2021/10/21 08:21:48;;;;;;;;;;;;;;;16.50;71.41;99462.91;5037866;28;1249;-58
2021/10/21 08:24:13;;;;;;;;;;;;;;;16.53;72.54;99468.78;5037297;28;1360;-58
2021/10/21 08:26:38;;;;;;;;;;;;;;;16.54;72.67;99475.00;5037373;28;1397;-58
2021/10/21 08:29:04;;;;;;;;;;;;;;;16.48;72.21;99481.09;5037023;28;1334;-59
2021/10/21 08:31:29;;;;;;;;;;;;;;;16.43;71.94;99486.13;5037884;28;1715;-59
2021/10/21 08:33:54;;;;;;;;;;;;;;;16.38;71.67;99488.47;5037787;28;1717;-59
2021/10/21 08:36:19;;;;;;;;;;;;;;;16.37;71.94;99494.84;5035214;28;1902;-59
2021/10/21 08:38:44;;;;;;;;;;;;;;;16.43;71.31;99507.63;5031039;28;2077;-59
2021/10/21 08:41:09;;;;;;;;;;;;;;;16.49;71.11;99498.88;5037906;28;1389;-59
2021/10/21 08:43:34;;;;;;;;;;;;;;;16.53;71.37;99517.19;5038284;28;881;-58
2021/10/21 08:46:00;;;;;;;;;;;;;;;16.56;71.50;99507.94;5037466;28;816;-58
2021/10/21 08:48:25;;;;;;;;;;;;;;;16.57;71.04;99515.00;5037512;28;1013;-59
2021/10/21 08:50:50;;;;;;;;;;;;;;;16.56;71.07;99513.31;5036798;28;790;-58
2021/10/21 08:53:15;;;;;;;;;;;;;;;16.58;71.04;99536.34;5037420;28;1443;-59
2021/10/21 08:55:40;;;;;;;;;;;;;;;16.58;70.98;99535.50;5036860;28;1911;-59
2021/10/21 08:58:05;;;;;;;;;;;;;;;16.56;70.53;99545.59;5037118;28;791;-58
2021/10/21 09:00:32;;;;;;;;;;;;;;;16.54;70.28;99550.31;5037423;28;871;-58
2021/10/21 09:03:01;;;;;;;;;;;;;;;16.51;69.95;99559.53;5037480;28;902;-58
2021/10/21 09:05:32;;;;;;;;;;;;;;;16.48;70.44;99564.44;5037087;28;1845;-59
2021/10/21 09:07:58;;;;;;;;;;;;;;;16.44;70.14;99566.63;5037059;28;796;-59
2021/10/21 09:10:23;;;;;;;;;;;;;;;16.43;69.42;99581.06;5037017;28;951;-59
2021/10/21 09:12:48;;;;;;;;;;;;;;;16.42;69.60;99567.78;5037176;28;1619;-59
2021/10/21 09:15:15;;;;;;;;;;;;;;;16.43;69.07;99580.22;5036798;28;1918;-59
2021/10/21 09:17:40;;;;;;;;;;;;;;;16.41;69.41;99583.09;5037694;28;830;-59
2021/10/21 09:20:05;;;;;;;;;;;;;;;16.42;69.28;99592.00;5035560;28;1797;-59
2021/10/21 09:22:30;;;;;;;;;;;;;;;16.41;69.54;99590.31;5045869;28;1606;-59
2021/10/21 09:24:57;;;;;;;;;;;;;;;16.38;69.32;99604.09;5036617;28;1851;-59
2021/10/21 09:27:25;;;;;;;;;;;;;;;16.36;70.11;99619.53;5036554;28;1578;-59
2021/10/21 09:29:50;;;;;;;;;;;;;;;16.31;69.99;99620.88;5036470;28;894;-59
2021/10/21 09:32:16;;;;;;;;;;;;;;;16.30;69.46;99621.06;5036312;28;1421;-59
2021/10/21 09:34:41;;;;;;;;;;;;;;;16.29;69.42;99630.13;5035997;28;1967;-59
2021/10/21 09:37:06;;;;;;;;;;;;;;;16.27;69.85;99634.84;5036028;28;1202;-59
2021/10/21 09:39:31;;;;;;;;;;;;;;;16.26;70.23;99636.69;5019917;28;1783;-59
2021/10/21 09:41:56;;;;;;;;;;;;;;;16.25;69.38;99640.38;5028467;28;1748;-59
2021/10/21 09:44:21;;;;;;;;;;;;;;;16.26;69.76;99649.28;5036368;28;1511;-59
2021/10/21 09:46:46;;;;;;;;;;;;;;;16.23;69.60;99658.50;5036203;28;894;-58
2021/10/21 09:49:11;;;;;;;;;;;;;;;16.25;69.53;99666.41;5036547;28;993;-59
2021/10/21 09:51:36;;;;;;;;;;;;;;;16.28;69.46;99656.19;5035967;28;907;-59
2021/10/21 09:54:02;;;;;;;;;;;;;;;16.27;69.35;99667.94;5035870;28;859;-59
2021/10/21 09:56:27;;;;;;;;;;;;;;;16.24;69.50;99679.00;5035664;28;1902;-59
2021/10/21 09:58:52;;;;;;;;;;;;;;;16.24;69.31;99692.47;5036258;28;1084;-59
2021/10/21 10:01:17;;;;;;;;;;;;;;;16.22;69.13;99686.41;5034914;28;1778;-59
2021/10/21 10:03:43;;;;;;;;;;;;;;;16.22;69.42;99696.31;5035727;28;812;-60
2021/10/21 10:06:08;;;;;;;;;;;;;;;16.18;69.29;99689.56;5034527;28;1507;-59
2021/10/21 10:08:33;;;;;;;;;;;;;;;16.16;69.57;99696.94;5026030;28;2262;-59
2021/10/21 10:10:58;;;;;;;;;;;;;;;16.13;69.63;99713.41;5022626;28;1583;-58
2021/10/21 10:13:23;;;;;;;;;;;;;;;16.11;69.51;99704.69;5024455;28;1595;-59
2021/10/21 10:15:49;;;;;;;;;;;;;;;16.09;69.62;99720.97;5024259;28;1894;-60
2021/10/21 10:18:14;;;;;;;;;;;;;;;16.07;69.62;99731.03;5023733;28;1627;-58
2021/10/21 10:20:39;;;;;;;;;;;;;;;16.09;69.29;99747.00;5023509;28;1518;-58
2021/10/21 10:23:05;;;;;;;;;;;;;;;16.08;69.75;99738.09;5026805;28;1699;-59
2021/10/21 10:25:30;;;;;;;;;;;;;;;16.09;69.53;99749.69;5014180;28;1583;-59
2021/10/21 10:27:55;;;;;;;;;;;;;;;16.13;69.63;99757.25;5025908;28;1878;-59
2021/10/21 10:30:20;;;;;;;;;;;;;;;16.11;69.18;99767.34;5027006;28;1637;-59
2021/10/21 10:32:45;;;;;;;;;;;;;;;16.08;69.68;99764.97;5023104;28;1665;-58
2021/10/21 10:35:10;;;;;;;;;;;;;;;16.07;69.67;99760.59;5021006;28;1898;-59
2021/10/21 10:37:35;;;;;;;;;;;;;;;16.06;69.52;99783.09;5024762;28;1358;-59
2021/10/21 10:40:00;;;;;;;;;;;;;;;16.05;70.05;99794.84;5021425;28;1759;-58
2021/10/21 10:42:25;;;;;;;;;;;;;;;16.01;70.15;99798.84;5024069;28;1634;-59
2021/10/21 10:44:50;;;;;;;;;;;;;;;16.02;70.26;99807.75;5027132;28;1986;-58
2021/10/21 10:47:16;;;;;;;;;;;;;;;16.00;69.99;99831.25;5029177;28;1500;-59
2021/10/21 10:49:41;;;;;;;;;;;;;;;15.97;70.15;99845.84;5026317;28;1747;-58
2021/10/21 10:52:06;;;;;;;;;;;;;;;15.94;70.24;99841.63;5024158;28;1608;-59
2021/10/21 10:54:31;;;;;;;;;;;;;;;15.94;70.33;99865.00;5024648;28;2001;-59
2021/10/21 10:56:56;;;;;;;;;;;;;;;15.94;69.98;99870.38;5030380;28;1676;-59
2021/10/21 10:59:21;;;;;;;;;;;;;;;15.92;70.29;99869.69;5023604;28;1642;-59
2021/10/21 11:01:46;;;;;;;;;;;;;;;15.92;70.28;99883.97;5022830;28;1531;-59
2021/10/21 11:04:12;;;;;;;;;;;;;;;15.92;70.12;99888.50;5021763;28;1620;-58
2021/10/21 11:06:37;;;;;;;;;;;;;;;15.93;70.05;99903.63;5023933;28;2010;-58
2021/10/21 11:09:05;;;;;;;;;;;;;;;15.92;70.28;99894.72;5027181;28;1560;-59
2021/10/21 11:11:31;;;;;;;;;;;;;;;15.92;70.09;99910.00;5021852;28;1408;-59
2021/10/21 11:13:56;;;;;;;;;;;;;;;15.91;70.21;99919.91;5023511;28;1615;-58
2021/10/21 11:16:24;;;;;;;;;;;;;;;15.92;70.31;99915.38;5026594;28;1965;-59
2021/10/21 11:18:49;;;;;;;;;;;;;;;15.90;70.33;99923.59;5028770;28;1518;-59
2021/10/21 11:21:14;;;;;;;;;;;;;;;15.91;70.49;99927.97;5028702;28;1824;-59
2021/10/21 11:23:39;;;;;;;;;;;;;;;15.89;70.66;99923.72;5025967;28;1649;-58
2021/10/21 11:26:06;;;;;;;;;;;;;;;15.89;70.77;99921.06;5023491;28;1609;-59
2021/10/21 11:28:31;;;;;;;;;;;;;;;15.89;70.20;99926.41;5025306;28;1439;-58
2021/10/21 11:30:56;;;;;;;;;;;;;;;15.88;70.32;99933.63;5024254;28;1734;-59
2021/10/21 11:33:21;;;;;;;;;;;;;;;15.89;70.32;99934.47;5025680;28;1739;-58
2021/10/21 11:35:46;;;;;;;;;;;;;;;15.92;70.59;99939.56;5028334;28;1898;-59
2021/10/21 11:38:11;;;;;;;;;;;;;;;15.92;70.51;99939.56;5027014;28;1830;-59
2021/10/21 11:40:37;;;;;;;;;;;;;;;15.91;70.68;99954.81;5026238;28;1690;-59
2021/10/21 11:43:02;;;;;;;;;;;;;;;15.91;70.42;99967.41;5020663;28;1710;-59
2021/10/21 11:45:27;;;;;;;;;;;;;;;15.90;70.19;99971.94;5024304;28;1623;-59
2021/10/21 11:47:52;;;;;;;;;;;;;;;15.88;70.90;99973.09;5025704;28;1698;-59
2021/10/21 11:50:17;;;;;;;;;;;;;;;15.87;70.58;99984.84;5020240;28;1671;-58
2021/10/21 11:52:42;;;;;;;;;;;;;;;15.88;70.61;99991.91;5027347;28;1635;-59
2021/10/21 11:55:08;;;;;;;;;;;;;;;15.88;70.28;99999.97;5024668;28;1977;-58
2021/10/21 11:57:33;;;;;;;;;;;;;;;15.87;70.62;99992.91;5021036;28;1420;-59
2021/10/21 11:59:58;;;;;;;;;;;;;;;15.89;70.54;99996.28;5015512;28;1610;-59
2021/10/21 12:02:23;;;;;;;;;;;;;;;15.90;70.60;99995.28;5020120;28;1636;-58
2021/10/21 12:04:48;;;;;;;;;;;;;;;15.92;70.45;99993.28;5027556;28;1716;-59
2021/10/21 12:07:13;;;;;;;;;;;;;;;15.94;70.69;100002.03;5028900;28;1457;-59
2021/10/21 12:09:38;;;;;;;;;;;;;;;15.95;70.22;100003.69;5026871;28;1590;-59
2021/10/21 12:12:05;;;;;;;;;;;;;;;16.00;70.52;100006.78;5021109;28;1890;-58
2021/10/21 12:14:30;;;;;;;;;;;;;;;15.98;70.46;100022.22;5025280;28;1614;-59
2021/10/21 12:16:55;;;;;;;;;;;;;;;15.97;70.81;100036.63;5027808;28;1895;-59
2021/10/21 12:19:21;;;;;;;;;;;;;;;15.97;70.73;100047.41;5028917;28;1647;-59
2021/10/21 12:21:46;;;;;;;;;;;;;;;15.95;70.43;100055.59;5025826;28;1514;-59
2021/10/21 12:24:11;;;;;;;;;;;;;;;15.95;70.77;100049.38;5022664;28;1615;-59
2021/10/21 12:26:36;;;;;;;;;;;;;;;15.94;70.83;100047.72;5024781;28;1800;-58
2021/10/21 12:29:01;;;;;;;;;;;;;;;15.95;70.56;100055.59;5026542;28;1770;-60
2021/10/21 12:31:26;;;;;;;;;;;;;;;15.94;70.50;100064.66;5024879;28;1596;-60
2021/10/21 12:33:51;;;;;;;;;;;;;;;15.93;70.65;100068.38;5019949;28;1534;-60
2021/10/21 12:36:18;;;;;;;;;;;;;;;15.95;71.07;100084.31;5018558;28;1899;-60
2021/10/21 12:38:44;;;;;;;;;;;;;;;15.96;70.64;100089.53;5037626;28;1793;-60
2021/10/21 12:41:09;;;;;;;;;;;;;;;15.96;70.63;100104.81;5026933;28;1703;-59
2021/10/21 12:43:34;;;;;;;;;;;;;;;15.96;70.79;100107.50;5037151;28;1708;-60
2021/10/21 12:46:04;;;;;;;;;;;;;;;15.96;70.85;100118.25;5037086;28;1799;-57